Terminal Aerodrome Forecast
Issued by NWS Houston/Galveston, TX

Home | Current Version | Previous Version | Text Only | Print | Product List | Glossary On
Versions: 1 2 3 4 5 6 7 8 9 10 11 12
000
FTUS44 KHGX 160520
TAFGLS
TAF
KGLS 160520Z 1606/1706 10008KT P6SM SCT035 BKN090
     FM161000 36015G25KT P6SM -SHRA OVC015
     FM161200 36021G31KT 6SM -RA BR SCT008 OVC012
     FM161900 35019G29KT 6SM -RAPL BR OVC015
     FM162100 36018G28KT 6SM -SNPL BR OVC025
     FM170100 36017G27KT P6SM SCT025 BKN045=

USA.gov is the U.S. government's official web portal to all federal, state and local government web resources and services.